sensor_id;sensor_type;location;lat;lon;timestamp;temperature;humidity
25302;DHT22;13243;50.888;4.724;2023-06-22T00:00:49;23.10;99.90
25302;DHT22;13243;50.888;4.724;2023-06-22T00:05:52;23.10;99.90
25302;DHT22;13243;50.888;4.724;2023-06-22T00:10:54;23.20;99.90
25302;DHT22;13243;50.888;4.724;2023-06-22T00:15:56;23.00;99.90
25302;DHT22;13243;50.888;4.724;2023-06-22T00:20:59;22.80;99.90
25302;DHT22;13243;50.888;4.724;2023-06-22T00:26:02;22.60;99.90
25302;DHT22;13243;50.888;4.724;2023-06-22T00:31:04;22.40;99.90
25302;DHT22;13243;50.888;4.724;2023-06-22T00:36:06;22.50;99.90
25302;DHT22;13243;50.888;4.724;2023-06-22T00:41:12;22.30;99.90
25302;DHT22;13243;50.888;4.724;2023-06-22T00:46:14;22.10;99.90
25302;DHT22;13243;50.888;4.724;2023-06-22T00:51:16;22.00;99.90
25302;DHT22;13243;50.888;4.724;2023-06-22T00:56:18;22.20;99.90
25302;DHT22;13243;50.888;4.724;2023-06-22T01:01:21;21.90;99.90
25302;DHT22;13243;50.888;4.724;2023-06-22T01:06:35;22.00;99.90
25302;DHT22;13243;50.888;4.724;2023-06-22T01:11:44;22.10;99.90
25302;DHT22;13243;50.888;4.724;2023-06-22T01:16:48;21.90;99.90
25302;DHT22;13243;50.888;4.724;2023-06-22T01:21:53;22.10;99.90
25302;DHT22;13243;50.888;4.724;2023-06-22T01:27:26;22.30;99.90
25302;DHT22;13243;50.888;4.724;2023-06-22T01:32:32;22.20;99.90
25302;DHT22;13243;50.888;4.724;2023-06-22T01:37:36;22.10;99.90
25302;DHT22;13243;50.888;4.724;2023-06-22T01:42:38;21.90;99.90
25302;DHT22;13243;50.888;4.724;2023-06-22T01:47:41;21.80;99.90
25302;DHT22;13243;50.888;4.724;2023-06-22T01:52:43;21.70;99.90
25302;DHT22;13243;50.888;4.724;2023-06-22T01:57:45;21.70;99.90
25302;DHT22;13243;50.888;4.724;2023-06-22T02:03:03;21.30;99.90
25302;DHT22;13243;50.888;4.724;2023-06-22T02:13:09;21.00;99.90
25302;DHT22;13243;50.888;4.724;2023-06-22T02:18:12;21.10;99.90
25302;DHT22;13243;50.888;4.724;2023-06-22T02:23:14;20.90;99.90
25302;DHT22;13243;50.888;4.724;2023-06-22T02:28:16;21.10;99.90
25302;DHT22;13243;50.888;4.724;2023-06-22T02:33:18;21.10;99.90
25302;DHT22;13243;50.888;4.724;2023-06-22T02:38:20;21.00;99.90
25302;DHT22;13243;50.888;4.724;2023-06-22T02:43:21;20.90;99.90
25302;DHT22;13243;50.888;4.724;2023-06-22T02:48:26;21.10;99.90
25302;DHT22;13243;50.888;4.724;2023-06-22T02:53:28;21.30;99.90
25302;DHT22;13243;50.888;4.724;2023-06-22T02:58:30;21.20;99.90
25302;DHT22;13243;50.888;4.724;2023-06-22T03:03:32;21.20;99.90
25302;DHT22;13243;50.888;4.724;2023-06-22T03:08:34;20.80;99.90
25302;DHT22;13243;50.888;4.724;2023-06-22T03:13:36;20.90;99.90
25302;DHT22;13243;50.888;4.724;2023-06-22T03:18:38;20.80;99.90
25302;DHT22;13243;50.888;4.724;2023-06-22T03:23:40;20.80;99.90
25302;DHT22;13243;50.888;4.724;2023-06-22T03:28:42;20.80;99.90
25302;DHT22;13243;50.888;4.724;2023-06-22T03:33:44;20.70;99.90
25302;DHT22;13243;50.888;4.724;2023-06-22T03:38:47;20.70;99.90
25302;DHT22;13243;50.888;4.724;2023-06-22T03:43:49;20.90;99.90
25302;DHT22;13243;50.888;4.724;2023-06-22T03:48:51;21.00;99.90
25302;DHT22;13243;50.888;4.724;2023-06-22T03:53:53;20.80;99.90
25302;DHT22;13243;50.888;4.724;2023-06-22T03:58:55;20.80;99.90
25302;DHT22;13243;50.888;4.724;2023-06-22T04:03:57;20.90;99.90
25302;DHT22;13243;50.888;4.724;2023-06-22T04:08:59;21.00;99.90
25302;DHT22;13243;50.888;4.724;2023-06-22T04:14:02;21.00;99.90
25302;DHT22;13243;50.888;4.724;2023-06-22T04:19:04;20.90;99.90
25302;DHT22;13243;50.888;4.724;2023-06-22T04:24:06;21.00;99.90
25302;DHT22;13243;50.888;4.724;2023-06-22T04:29:08;21.00;99.90
25302;DHT22;13243;50.888;4.724;2023-06-22T04:34:13;21.00;99.90
25302;DHT22;13243;50.888;4.724;2023-06-22T04:39:17;21.00;99.90
25302;DHT22;13243;50.888;4.724;2023-06-22T04:44:20;20.90;99.90
25302;DHT22;13243;50.888;4.724;2023-06-22T04:49:29;20.90;99.90
25302;DHT22;13243;50.888;4.724;2023-06-22T04:54:35;21.00;99.90
25302;DHT22;13243;50.888;4.724;2023-06-22T04:59:39;21.00;99.90
25302;DHT22;13243;50.888;4.724;2023-06-22T05:04:43;21.20;99.90
25302;DHT22;13243;50.888;4.724;2023-06-22T05:09:45;21.30;99.90
25302;DHT22;13243;50.888;4.724;2023-06-22T05:14:47;21.30;99.90
25302;DHT22;13243;50.888;4.724;2023-06-22T05:19:49;21.30;99.90
25302;DHT22;13243;50.888;4.724;2023-06-22T05:24:51;21.30;99.90
25302;DHT22;13243;50.888;4.724;2023-06-22T05:29:55;21.30;99.90
25302;DHT22;13243;50.888;4.724;2023-06-22T05:34:56;21.40;99.90
25302;DHT22;13243;50.888;4.724;2023-06-22T05:39:58;21.40;99.90
25302;DHT22;13243;50.888;4.724;2023-06-22T05:45:00;21.40;99.90
25302;DHT22;13243;50.888;4.724;2023-06-22T05:50:02;21.40;99.90
25302;DHT22;13243;50.888;4.724;2023-06-22T05:55:08;21.40;99.90
25302;DHT22;13243;50.888;4.724;2023-06-22T06:00:11;21.40;99.90
25302;DHT22;13243;50.888;4.724;2023-06-22T06:05:14;21.40;99.90
25302;DHT22;13243;50.888;4.724;2023-06-22T06:10:16;21.30;99.90
25302;DHT22;13243;50.888;4.724;2023-06-22T06:15:18;21.30;99.90
25302;DHT22;13243;50.888;4.724;2023-06-22T06:20:21;21.40;99.90
25302;DHT22;13243;50.888;4.724;2023-06-22T06:25:23;21.40;99.90
25302;DHT22;13243;50.888;4.724;2023-06-22T06:30:26;21.30;99.90
25302;DHT22;13243;50.888;4.724;2023-06-22T06:35:28;21.60;99.90
25302;DHT22;13243;50.888;4.724;2023-06-22T06:40:31;21.70;99.90
25302;DHT22;13243;50.888;4.724;2023-06-22T06:45:33;21.80;99.90
25302;DHT22;13243;50.888;4.724;2023-06-22T06:50:36;21.80;99.90
25302;DHT22;13243;50.888;4.724;2023-06-22T06:55:38;22.00;99.90
25302;DHT22;13243;50.888;4.724;2023-06-22T07:00:40;22.00;99.90
25302;DHT22;13243;50.888;4.724;2023-06-22T07:05:42;22.00;99.90
25302;DHT22;13243;50.888;4.724;2023-06-22T07:10:44;22.10;99.90
25302;DHT22;13243;50.888;4.724;2023-06-22T07:15:46;22.30;99.90
25302;DHT22;13243;50.888;4.724;2023-06-22T07:20:47;22.40;99.90
25302;DHT22;13243;50.888;4.724;2023-06-22T07:25:50;22.30;99.90
25302;DHT22;13243;50.888;4.724;2023-06-22T07:30:52;22.20;99.90
25302;DHT22;13243;50.888;4.724;2023-06-22T07:35:54;22.30;99.90
25302;DHT22;13243;50.888;4.724;2023-06-22T07:40:55;22.40;99.90
25302;DHT22;13243;50.888;4.724;2023-06-22T07:45:57;22.50;99.90
25302;DHT22;13243;50.888;4.724;2023-06-22T07:50:59;22.20;99.90
25302;DHT22;13243;50.888;4.724;2023-06-22T07:56:02;22.00;99.90
25302;DHT22;13243;50.888;4.724;2023-06-22T08:01:08;21.80;99.90
25302;DHT22;13243;50.888;4.724;2023-06-22T08:06:11;21.90;99.90
25302;DHT22;13243;50.888;4.724;2023-06-22T08:11:13;22.00;99.90
25302;DHT22;13243;50.888;4.724;2023-06-22T08:16:15;22.00;99.90
25302;DHT22;13243;50.888;4.724;2023-06-22T08:21:17;22.10;99.90
25302;DHT22;13243;50.888;4.724;2023-06-22T08:26:19;22.00;99.90
25302;DHT22;13243;50.888;4.724;2023-06-22T08:31:21;22.00;99.90
25302;DHT22;13243;50.888;4.724;2023-06-22T08:36:22;21.90;99.90
25302;DHT22;13243;50.888;4.724;2023-06-22T08:41:24;22.10;99.90
25302;DHT22;13243;50.888;4.724;2023-06-22T08:46:27;22.00;99.90
25302;DHT22;13243;50.888;4.724;2023-06-22T08:51:32;22.00;99.90
25302;DHT22;13243;50.888;4.724;2023-06-22T08:56:34;22.00;99.90
25302;DHT22;13243;50.888;4.724;2023-06-22T09:01:36;22.00;99.90
25302;DHT22;13243;50.888;4.724;2023-06-22T09:06:38;22.10;99.90
25302;DHT22;13243;50.888;4.724;2023-06-22T09:11:46;22.10;99.90
25302;DHT22;13243;50.888;4.724;2023-06-22T09:16:48;22.10;99.90
25302;DHT22;13243;50.888;4.724;2023-06-22T09:21:50;22.30;99.90
25302;DHT22;13243;50.888;4.724;2023-06-22T09:26:52;22.10;99.90
25302;DHT22;13243;50.888;4.724;2023-06-22T09:31:54;21.90;99.90
25302;DHT22;13243;50.888;4.724;2023-06-22T09:36:57;21.80;99.90
25302;DHT22;13243;50.888;4.724;2023-06-22T09:42:02;21.80;99.90
25302;DHT22;13243;50.888;4.724;2023-06-22T09:47:04;21.60;99.90
25302;DHT22;13243;50.888;4.724;2023-06-22T09:52:07;21.40;99.90
25302;DHT22;13243;50.888;4.724;2023-06-22T09:57:09;21.30;99.90
25302;DHT22;13243;50.888;4.724;2023-06-22T10:02:11;21.10;99.90
25302;DHT22;13243;50.888;4.724;2023-06-22T10:07:13;21.00;99.90
25302;DHT22;13243;50.888;4.724;2023-06-22T10:12:15;20.80;99.90
25302;DHT22;13243;50.888;4.724;2023-06-22T10:17:17;20.90;99.90
25302;DHT22;13243;50.888;4.724;2023-06-22T10:22:19;20.80;99.90
25302;DHT22;13243;50.888;4.724;2023-06-22T10:27:21;20.60;99.90
25302;DHT22;13243;50.888;4.724;2023-06-22T10:32:22;20.60;99.90
25302;DHT22;13243;50.888;4.724;2023-06-22T10:37:24;20.40;99.90
25302;DHT22;13243;50.888;4.724;2023-06-22T10:42:26;20.30;99.90
25302;DHT22;13243;50.888;4.724;2023-06-22T10:47:28;20.30;99.90
25302;DHT22;13243;50.888;4.724;2023-06-22T10:52:30;20.00;99.90
25302;DHT22;13243;50.888;4.724;2023-06-22T10:57:32;19.90;99.90
25302;DHT22;13243;50.888;4.724;2023-06-22T11:02:34;19.90;99.90
25302;DHT22;13243;50.888;4.724;2023-06-22T11:07:37;19.90;99.90
25302;DHT22;13243;50.888;4.724;2023-06-22T11:12:40;20.00;99.90
25302;DHT22;13243;50.888;4.724;2023-06-22T11:17:42;20.00;99.90
25302;DHT22;13243;50.888;4.724;2023-06-22T11:22:44;20.10;99.90
25302;DHT22;13243;50.888;4.724;2023-06-22T11:27:46;20.10;99.90
25302;DHT22;13243;50.888;4.724;2023-06-22T11:32:47;20.10;99.90
25302;DHT22;13243;50.888;4.724;2023-06-22T11:37:52;20.20;99.90
25302;DHT22;13243;50.888;4.724;2023-06-22T11:42:54;20.10;99.90
25302;DHT22;13243;50.888;4.724;2023-06-22T11:47:56;20.10;99.90
25302;DHT22;13243;50.888;4.724;2023-06-22T11:52:58;20.10;99.90
25302;DHT22;13243;50.888;4.724;2023-06-22T11:58:00;20.00;99.90
25302;DHT22;13243;50.888;4.724;2023-06-22T12:03:04;20.10;99.90
25302;DHT22;13243;50.888;4.724;2023-06-22T12:08:06;20.10;99.90
25302;DHT22;13243;50.888;4.724;2023-06-22T12:13:08;20.00;99.90
25302;DHT22;13243;50.888;4.724;2023-06-22T12:18:11;20.20;99.90
25302;DHT22;13243;50.888;4.724;2023-06-22T12:23:14;20.10;99.90
25302;DHT22;13243;50.888;4.724;2023-06-22T12:28:16;19.90;99.90
25302;DHT22;13243;50.888;4.724;2023-06-22T12:33:18;19.90;99.90
25302;DHT22;13243;50.888;4.724;2023-06-22T12:38:20;19.90;99.90
25302;DHT22;13243;50.888;4.724;2023-06-22T12:43:22;19.90;99.90
25302;DHT22;13243;50.888;4.724;2023-06-22T12:48:26;19.90;99.90
25302;DHT22;13243;50.888;4.724;2023-06-22T12:53:28;19.90;99.90
25302;DHT22;13243;50.888;4.724;2023-06-22T12:58:30;20.00;99.90
25302;DHT22;13243;50.888;4.724;2023-06-22T13:03:32;19.90;99.90
25302;DHT22;13243;50.888;4.724;2023-06-22T13:08:34;19.80;99.90
25302;DHT22;13243;50.888;4.724;2023-06-22T13:13:56;19.80;99.90
25302;DHT22;13243;50.888;4.724;2023-06-22T13:18:58;19.80;99.90
25302;DHT22;13243;50.888;4.724;2023-06-22T13:24:00;19.70;99.90
25302;DHT22;13243;50.888;4.724;2023-06-22T13:29:02;19.80;99.90
25302;DHT22;13243;50.888;4.724;2023-06-22T13:34:04;19.90;99.90
25302;DHT22;13243;50.888;4.724;2023-06-22T13:39:06;19.90;99.90
25302;DHT22;13243;50.888;4.724;2023-06-22T13:44:08;19.90;99.90
25302;DHT22;13243;50.888;4.724;2023-06-22T13:49:10;19.90;99.90
25302;DHT22;13243;50.888;4.724;2023-06-22T13:54:11;19.80;99.90
25302;DHT22;13243;50.888;4.724;2023-06-22T13:59:30;19.80;99.90
25302;DHT22;13243;50.888;4.724;2023-06-22T14:04:32;19.70;99.90
25302;DHT22;13243;50.888;4.724;2023-06-22T14:09:34;19.70;99.90
25302;DHT22;13243;50.888;4.724;2023-06-22T14:14:35;19.70;99.90
25302;DHT22;13243;50.888;4.724;2023-06-22T14:19:37;19.80;99.90
25302;DHT22;13243;50.888;4.724;2023-06-22T14:24:39;19.80;99.90
25302;DHT22;13243;50.888;4.724;2023-06-22T14:29:42;19.70;99.90
25302;DHT22;13243;50.888;4.724;2023-06-22T14:34:44;19.60;99.90
25302;DHT22;13243;50.888;4.724;2023-06-22T14:39:46;19.40;99.90
25302;DHT22;13243;50.888;4.724;2023-06-22T14:44:48;19.60;99.90
25302;DHT22;13243;50.888;4.724;2023-06-22T14:49:50;19.60;99.90
25302;DHT22;13243;50.888;4.724;2023-06-22T14:54:52;19.50;99.90
25302;DHT22;13243;50.888;4.724;2023-06-22T14:59:54;19.60;99.90
25302;DHT22;13243;50.888;4.724;2023-06-22T15:04:56;19.60;99.90
25302;DHT22;13243;50.888;4.724;2023-06-22T15:09:58;19.70;99.90
25302;DHT22;13243;50.888;4.724;2023-06-22T15:15:00;19.80;99.90
25302;DHT22;13243;50.888;4.724;2023-06-22T15:20:03;19.80;99.90
25302;DHT22;13243;50.888;4.724;2023-06-22T15:25:07;20.00;99.90
25302;DHT22;13243;50.888;4.724;2023-06-22T15:30:09;20.00;99.90
25302;DHT22;13243;50.888;4.724;2023-06-22T15:35:11;20.00;99.90
25302;DHT22;13243;50.888;4.724;2023-06-22T15:40:13;20.00;99.90
25302;DHT22;13243;50.888;4.724;2023-06-22T15:45:15;20.00;99.90
25302;DHT22;13243;50.888;4.724;2023-06-22T15:50:17;20.10;99.90
25302;DHT22;13243;50.888;4.724;2023-06-22T15:55:19;20.00;99.90
25302;DHT22;13243;50.888;4.724;2023-06-22T16:00:21;20.00;99.90
25302;DHT22;13243;50.888;4.724;2023-06-22T16:05:23;20.10;99.90
25302;DHT22;13243;50.888;4.724;2023-06-22T16:10:25;20.00;99.90
25302;DHT22;13243;50.888;4.724;2023-06-22T16:15:27;20.00;99.90
25302;DHT22;13243;50.888;4.724;2023-06-22T16:20:29;20.00;99.90
25302;DHT22;13243;50.888;4.724;2023-06-22T16:25:31;20.10;99.90
25302;DHT22;13243;50.888;4.724;2023-06-22T16:30:33;20.10;99.90
25302;DHT22;13243;50.888;4.724;2023-06-22T16:35:35;20.10;99.90
25302;DHT22;13243;50.888;4.724;2023-06-22T16:40:38;20.10;99.90
25302;DHT22;13243;50.888;4.724;2023-06-22T16:45:40;20.20;99.90
25302;DHT22;13243;50.888;4.724;2023-06-22T16:50:42;20.00;99.90
25302;DHT22;13243;50.888;4.724;2023-06-22T16:55:48;20.10;99.90
25302;DHT22;13243;50.888;4.724;2023-06-22T17:00:51;20.00;99.90
25302;DHT22;13243;50.888;4.724;2023-06-22T17:05:57;20.10;99.90
25302;DHT22;13243;50.888;4.724;2023-06-22T17:11:03;20.20;99.90
25302;DHT22;13243;50.888;4.724;2023-06-22T17:16:05;20.10;99.90
25302;DHT22;13243;50.888;4.724;2023-06-22T17:21:21;20.00;99.90
25302;DHT22;13243;50.888;4.724;2023-06-22T17:26:23;20.00;99.90
25302;DHT22;13243;50.888;4.724;2023-06-22T17:31:25;20.10;99.90
25302;DHT22;13243;50.888;4.724;2023-06-22T17:36:27;20.10;99.90
25302;DHT22;13243;50.888;4.724;2023-06-22T17:41:32;20.10;99.90
25302;DHT22;13243;50.888;4.724;2023-06-22T17:46:38;20.10;99.90
25302;DHT22;13243;50.888;4.724;2023-06-22T17:51:40;20.10;99.90
25302;DHT22;13243;50.888;4.724;2023-06-22T17:56:50;20.10;99.90
25302;DHT22;13243;50.888;4.724;2023-06-22T18:01:52;20.10;99.90
25302;DHT22;13243;50.888;4.724;2023-06-22T18:06:54;20.10;99.90
25302;DHT22;13243;50.888;4.724;2023-06-22T18:11:58;20.10;99.90
25302;DHT22;13243;50.888;4.724;2023-06-22T18:17:04;20.10;99.90
25302;DHT22;13243;50.888;4.724;2023-06-22T18:22:06;20.10;99.90
25302;DHT22;13243;50.888;4.724;2023-06-22T18:27:12;20.10;99.90
25302;DHT22;13243;50.888;4.724;2023-06-22T18:32:16;20.20;99.90
25302;DHT22;13243;50.888;4.724;2023-06-22T18:37:18;20.20;99.90
25302;DHT22;13243;50.888;4.724;2023-06-22T18:42:20;20.10;99.90
25302;DHT22;13243;50.888;4.724;2023-06-22T18:47:30;20.10;99.90
25302;DHT22;13243;50.888;4.724;2023-06-22T18:52:33;20.00;99.90
25302;DHT22;13243;50.888;4.724;2023-06-22T18:57:36;20.00;99.90
25302;DHT22;13243;50.888;4.724;2023-06-22T19:02:59;19.90;99.90
25302;DHT22;13243;50.888;4.724;2023-06-22T19:08:01;20.00;99.90
25302;DHT22;13243;50.888;4.724;2023-06-22T19:18:40;19.90;99.90
25302;DHT22;13243;50.888;4.724;2023-06-22T19:23:43;19.90;99.90
25302;DHT22;13243;50.888;4.724;2023-06-22T19:28:54;19.90;99.90
25302;DHT22;13243;50.888;4.724;2023-06-22T19:34:03;19.90;99.90
25302;DHT22;13243;50.888;4.724;2023-06-22T19:39:08;19.90;99.90
25302;DHT22;13243;50.888;4.724;2023-06-22T19:44:10;19.90;99.90
25302;DHT22;13243;50.888;4.724;2023-06-22T19:49:15;19.90;99.90
25302;DHT22;13243;50.888;4.724;2023-06-22T19:54:17;19.90;99.90
25302;DHT22;13243;50.888;4.724;2023-06-22T19:59:22;19.80;99.90
25302;DHT22;13243;50.888;4.724;2023-06-22T20:04:24;19.80;99.90
25302;DHT22;13243;50.888;4.724;2023-06-22T20:09:26;19.80;99.90
25302;DHT22;13243;50.888;4.724;2023-06-22T20:14:33;19.90;99.90
25302;DHT22;13243;50.888;4.724;2023-06-22T20:19:36;19.80;99.90
25302;DHT22;13243;50.888;4.724;2023-06-22T20:24:40;19.80;99.90
25302;DHT22;13243;50.888;4.724;2023-06-22T20:29:42;19.80;99.90
25302;DHT22;13243;50.888;4.724;2023-06-22T20:34:46;19.80;99.90
25302;DHT22;13243;50.888;4.724;2023-06-22T20:39:50;19.80;99.90
25302;DHT22;13243;50.888;4.724;2023-06-22T20:44:53;19.80;99.90
25302;DHT22;13243;50.888;4.724;2023-06-22T20:49:54;19.80;99.90
25302;DHT22;13243;50.888;4.724;2023-06-22T20:55:01;19.80;99.90
25302;DHT22;13243;50.888;4.724;2023-06-22T21:00:03;19.80;99.90
25302;DHT22;13243;50.888;4.724;2023-06-22T21:05:08;19.90;99.90
25302;DHT22;13243;50.888;4.724;2023-06-22T21:10:10;19.90;99.90
25302;DHT22;13243;50.888;4.724;2023-06-22T21:15:11;19.80;99.90
25302;DHT22;13243;50.888;4.724;2023-06-22T21:20:13;19.80;99.90
25302;DHT22;13243;50.888;4.724;2023-06-22T21:25:16;19.80;99.90
25302;DHT22;13243;50.888;4.724;2023-06-22T21:30:17;19.80;99.90
25302;DHT22;13243;50.888;4.724;2023-06-22T21:35:19;19.70;99.90
25302;DHT22;13243;50.888;4.724;2023-06-22T21:40:21;19.70;99.90
25302;DHT22;13243;50.888;4.724;2023-06-22T21:45:26;19.60;99.90
25302;DHT22;13243;50.888;4.724;2023-06-22T21:50:28;19.50;99.90
25302;DHT22;13243;50.888;4.724;2023-06-22T21:55:30;19.40;99.90
25302;DHT22;13243;50.888;4.724;2023-06-22T22:00:32;19.30;99.90
25302;DHT22;13243;50.888;4.724;2023-06-22T22:05:34;19.30;99.90
25302;DHT22;13243;50.888;4.724;2023-06-22T22:10:36;19.30;99.90
25302;DHT22;13243;50.888;4.724;2023-06-22T22:15:41;19.20;99.90
25302;DHT22;13243;50.888;4.724;2023-06-22T22:20:43;19.10;99.90
25302;DHT22;13243;50.888;4.724;2023-06-22T22:25:46;19.00;99.90
25302;DHT22;13243;50.888;4.724;2023-06-22T22:30:49;19.00;99.90
25302;DHT22;13243;50.888;4.724;2023-06-22T22:35:51;18.90;99.90
25302;DHT22;13243;50.888;4.724;2023-06-22T22:40:53;18.90;99.90
25302;DHT22;13243;50.888;4.724;2023-06-22T22:45:55;18.80;99.90
25302;DHT22;13243;50.888;4.724;2023-06-22T22:50:58;18.70;99.90
25302;DHT22;13243;50.888;4.724;2023-06-22T22:56:01;18.70;99.90
25302;DHT22;13243;50.888;4.724;2023-06-22T23:01:03;18.60;99.90
25302;DHT22;13243;50.888;4.724;2023-06-22T23:06:05;18.60;99.90
25302;DHT22;13243;50.888;4.724;2023-06-22T23:11:08;18.50;99.90
25302;DHT22;13243;50.888;4.724;2023-06-22T23:16:10;18.40;99.90
25302;DHT22;13243;50.888;4.724;2023-06-22T23:21:15;18.40;99.90
25302;DHT22;13243;50.888;4.724;2023-06-22T23:26:17;18.30;99.90
25302;DHT22;13243;50.888;4.724;2023-06-22T23:31:19;18.30;99.90
25302;DHT22;13243;50.888;4.724;2023-06-22T23:36:21;18.20;99.90
25302;DHT22;13243;50.888;4.724;2023-06-22T23:41:23;18.10;99.90
25302;DHT22;13243;50.888;4.724;2023-06-22T23:46:29;18.10;99.90
25302;DHT22;13243;50.888;4.724;2023-06-22T23:51:33;18.10;99.90
25302;DHT22;13243;50.888;4.724;2023-06-22T23:56:38;18.00;99.90
